Time;durP1;ratioP1;P1;durP2;ratioP2;P2;SDS_P1;SDS_P2;PMS_P1;PMS_P2;Temp;Humidity;BMP_temperature;BMP_pressure;BME280_temperature;BME280_humidity;BME280_pressure;Samples;Min_cycle;Max_cycle;Signal;HPM_P1;HPM_P2
2022/10/11 00:01:58;;;;;;;6.10;1.80;;;8.00;99.90;;;;;;4998864;28;20098;-55
2022/10/11 00:04:24;;;;;;;8.15;2.28;;;7.90;99.90;;;;;;5001016;28;20017;-53
2022/10/11 00:06:50;;;;;;;6.95;2.55;;;7.90;99.90;;;;;;4997844;28;20031;-53
2022/10/11 00:09:15;;;;;;;10.18;2.15;;;7.90;99.90;;;;;;4995681;28;20503;-52
2022/10/11 00:11:41;;;;;;;5.90;1.60;;;7.90;99.90;;;;;;4993045;28;20160;-53
2022/10/11 00:14:07;;;;;;;5.32;2.30;;;7.90;99.90;;;;;;5000546;28;20039;-53
2022/10/11 00:16:33;;;;;;;7.28;2.53;;;7.90;99.90;;;;;;4998465;28;20037;-56
2022/10/11 00:18:59;;;;;;;11.10;2.22;;;7.90;99.90;;;;;;4999181;28;20278;-55
2022/10/11 00:21:25;;;;;;;10.90;2.33;;;7.80;99.90;;;;;;4991474;28;20120;-54
2022/10/11 00:23:51;;;;;;;6.43;1.90;;;7.80;99.90;;;;;;4997568;28;20025;-52
2022/10/11 00:26:17;;;;;;;8.52;1.90;;;7.80;99.90;;;;;;5000460;28;20393;-52
2022/10/11 00:28:42;;;;;;;10.05;1.95;;;7.80;99.90;;;;;;4999084;28;20101;-52
2022/10/11 00:31:12;;;;;;;3.90;1.55;;;7.70;99.90;;;;;;4998783;28;20110;-51
2022/10/11 00:33:38;;;;;;;5.43;1.73;;;7.80;99.90;;;;;;4998638;28;20107;-56
2022/10/11 00:36:05;;;;;;;7.72;2.08;;;7.80;99.90;;;;;;5001849;28;20389;-56
2022/10/11 00:38:30;;;;;;;8.45;2.45;;;7.80;99.90;;;;;;5005877;28;20022;-51
2022/10/11 00:40:56;;;;;;;3.75;1.92;;;7.80;99.90;;;;;;5003369;28;20049;-52
2022/10/11 00:43:24;;;;;;;5.70;1.73;;;7.80;99.90;;;;;;4998355;28;20032;-55
2022/10/11 00:46:10;;;;;;;7.25;2.25;;;7.80;99.90;;;;;;4999162;28;20013;-51
2022/10/11 00:48:40;;;;;;;9.80;2.05;;;7.80;99.90;;;;;;5003731;28;20029;-56
2022/10/11 00:51:40;;;;;;;5.63;1.90;;;7.70;99.90;;;;;;5004258;28;20027;-51
2022/10/11 00:54:10;;;;;;;8.15;1.55;;;7.70;99.90;;;;;;4981404;28;20038;-53
2022/10/11 00:56:38;;;;;;;2.58;1.45;;;7.70;99.90;;;;;;5002283;28;20484;-53
2022/10/11 00:59:11;;;;;;;8.00;2.08;;;7.70;99.90;;;;;;4998933;28;20037;-56
2022/10/11 01:01:37;;;;;;;9.45;2.40;;;7.70;99.90;;;;;;4999752;28;20045;-52
2022/10/11 01:04:02;;;;;;;5.80;2.53;;;7.70;99.90;;;;;;5000451;28;20030;-54
2022/10/11 01:06:28;;;;;;;8.35;2.00;;;7.70;99.90;;;;;;5007004;28;20488;-56
2022/10/11 01:08:55;;;;;;;6.72;2.17;;;7.70;99.90;;;;;;5001365;28;20054;-54
2022/10/11 01:11:24;;;;;;;7.90;2.17;;;7.80;99.90;;;;;;5007450;23;20125;-51
2022/10/11 01:13:58;;;;;;;8.57;2.28;;;7.80;99.90;;;;;;4980913;28;20015;-49
2022/10/11 01:16:34;;;;;;;7.53;1.98;;;7.80;99.90;;;;;;4981209;28;20366;-51
2022/10/11 01:19:25;;;;;;;3.42;1.40;;;7.80;99.90;;;;;;4978623;28;20027;-51
2022/10/11 01:22:16;;;;;;;10.88;2.40;;;7.80;99.90;;;;;;4973129;28;20516;-54
2022/10/11 01:24:44;;;;;;;4.72;1.73;;;7.80;99.90;;;;;;4975449;28;20029;-50
2022/10/11 01:27:47;;;;;;;7.50;1.75;;;7.80;99.90;;;;;;4981282;28;20019;-51
2022/10/11 01:30:28;;;;;;;9.32;2.50;;;7.80;99.90;;;;;;4985413;28;20054;-51
2022/10/11 01:32:59;;;;;;;9.48;2.88;;;7.70;99.90;;;;;;4970895;28;20037;-55
2022/10/11 01:35:32;;;;;;;10.70;2.58;;;7.70;99.90;;;;;;4982982;28;20031;-53
2022/10/11 01:38:20;;;;;;;8.93;2.65;;;7.70;99.90;;;;;;4980186;28;20029;-49
2022/10/11 01:41:03;;;;;;;12.30;2.42;;;7.70;99.90;;;;;;4976466;28;20105;-57
2022/10/11 01:43:30;;;;;;;7.20;2.22;;;7.60;99.90;;;;;;4972032;28;20502;-50
2022/10/11 01:45:57;;;;;;;7.78;2.47;;;7.60;99.90;;;;;;4978591;28;20230;-53
2022/10/11 01:48:23;;;;;;;6.05;2.30;;;7.60;99.90;;;;;;4983663;28;20022;-50
2022/10/11 01:50:51;;;;;;;6.95;2.70;;;7.60;99.90;;;;;;4981723;28;20025;-51
2022/10/11 01:53:26;;;;;;;4.80;2.72;;;7.60;99.90;;;;;;4979457;28;20031;-49
2022/10/11 01:56:10;;;;;;;11.82;2.40;;;7.50;99.90;;;;;;4981799;28;20045;-53
2022/10/11 01:58:54;;;;;;;6.60;2.60;;;7.50;99.90;;;;;;4979971;28;20053;-54
2022/10/11 02:01:34;;;;;;;5.40;2.20;;;7.50;99.90;;;;;;4975424;28;20042;-53
2022/10/11 02:04:16;;;;;;;6.57;1.63;;;7.50;99.90;;;;;;4980488;28;20027;-55
2022/10/11 02:06:59;;;;;;;6.88;1.77;;;7.40;99.90;;;;;;4985221;28;20027;-50
2022/10/11 02:09:59;;;;;;;6.30;2.05;;;7.40;99.90;;;;;;4978500;28;20030;-52
2022/10/11 02:12:52;;;;;;;8.15;2.10;;;7.40;99.90;;;;;;4974383;28;20026;-50
2022/10/11 02:15:20;;;;;;;5.20;1.52;;;7.40;99.90;;;;;;4974075;28;20030;-50
2022/10/11 02:17:51;;;;;;;5.63;2.25;;;7.40;99.90;;;;;;4983466;28;20074;-49
2022/10/11 02:20:20;;;;;;;9.43;2.33;;;7.30;99.90;;;;;;4973147;28;20034;-53
2022/10/11 02:22:50;;;;;;;7.55;2.40;;;7.30;99.90;;;;;;4981664;28;20026;-49
2022/10/11 02:25:21;;;;;;;13.65;2.80;;;7.30;99.90;;;;;;4978252;28;20176;-50
2022/10/11 02:27:49;;;;;;;6.63;2.38;;;7.30;99.90;;;;;;4977502;28;20019;-49
2022/10/11 02:30:15;;;;;;;7.97;2.45;;;7.30;99.90;;;;;;4978642;28;20401;-52
2022/10/11 02:32:44;;;;;;;10.32;2.80;;;7.30;99.90;;;;;;4977426;28;20031;-51
2022/10/11 02:35:11;;;;;;;7.47;1.92;;;7.30;99.90;;;;;;4986070;28;20041;-49
2022/10/11 02:37:45;;;;;;;5.38;1.52;;;7.30;99.90;;;;;;4981356;28;20026;-50
2022/10/11 02:40:34;;;;;;;5.93;1.30;;;7.30;99.90;;;;;;4980969;28;20030;-49
2022/10/11 02:43:07;;;;;;;4.97;1.67;;;7.30;99.90;;;;;;4965980;28;20065;-54
2022/10/11 02:45:51;;;;;;;7.25;1.50;;;7.20;99.90;;;;;;4967379;28;20102;-51
2022/10/11 02:48:17;;;;;;;5.03;2.00;;;7.20;99.90;;;;;;4976398;28;20049;-49
2022/10/11 02:50:43;;;;;;;6.05;2.00;;;7.20;99.90;;;;;;4991409;28;20027;-50
2022/10/11 02:53:09;;;;;;;5.60;2.28;;;7.20;99.90;;;;;;4978352;28;20085;-49
2022/10/11 02:55:35;;;;;;;9.65;2.22;;;7.20;99.90;;;;;;4975623;28;20027;-49
2022/10/11 02:58:01;;;;;;;6.53;1.83;;;7.20;99.90;;;;;;4979573;28;20027;-51
2022/10/11 03:00:26;;;;;;;7.25;2.63;;;7.20;99.90;;;;;;4981332;28;20461;-51
2022/10/11 03:02:52;;;;;;;9.02;2.58;;;7.10;99.90;;;;;;4980353;28;20101;-55
2022/10/11 03:05:18;;;;;;;7.47;2.20;;;7.10;99.90;;;;;;4982043;28;20338;-53
2022/10/11 03:07:44;;;;;;;10.68;2.28;;;7.10;99.90;;;;;;4980750;28;20030;-51
2022/10/11 03:10:10;;;;;;;7.35;1.85;;;7.10;99.90;;;;;;4980588;28;20018;-51
2022/10/11 03:12:35;;;;;;;7.75;1.77;;;7.10;99.90;;;;;;4980990;28;20026;-49
2022/10/11 03:15:01;;;;;;;8.48;2.55;;;7.10;99.90;;;;;;4975284;28;20070;-49
2022/10/11 03:17:26;;;;;;;7.95;1.98;;;7.10;99.90;;;;;;4981369;28;20388;-53
2022/10/11 03:19:53;;;;;;;8.38;2.22;;;7.10;99.90;;;;;;4978616;28;20042;-49
2022/10/11 03:22:19;;;;;;;4.82;1.90;;;7.00;99.90;;;;;;4975002;28;20102;-50
2022/10/11 03:24:44;;;;;;;7.63;2.25;;;7.00;99.90;;;;;;4979896;28;20031;-50
2022/10/11 03:27:10;;;;;;;5.55;1.55;;;7.10;99.90;;;;;;4981446;28;20027;-51
2022/10/11 03:29:36;;;;;;;8.98;3.15;;;7.10;99.90;;;;;;4976699;28;20106;-50
2022/10/11 03:32:01;;;;;;;7.60;1.55;;;7.20;99.90;;;;;;4979425;28;20035;-52
2022/10/11 03:34:27;;;;;;;9.23;2.28;;;7.20;99.90;;;;;;4977638;28;20018;-50
2022/10/11 03:36:53;;;;;;;10.70;2.25;;;7.20;99.90;;;;;;4978313;28;20062;-51
2022/10/11 03:39:19;;;;;;;10.68;2.58;;;7.30;99.90;;;;;;4979732;28;20045;-50
2022/10/11 03:41:44;;;;;;;6.15;2.53;;;7.40;99.90;;;;;;4974975;28;20031;-49
2022/10/11 03:44:10;;;;;;;9.85;2.17;;;7.40;99.90;;;;;;4994658;28;20370;-54
2022/10/11 03:46:36;;;;;;;7.65;2.40;;;7.40;99.90;;;;;;4974758;28;20027;-50
2022/10/11 03:49:01;;;;;;;6.38;2.10;;;7.50;99.90;;;;;;4979523;28;20027;-53
2022/10/11 03:51:27;;;;;;;14.05;2.65;;;7.50;99.90;;;;;;4976611;28;20027;-50
2022/10/11 03:53:52;;;;;;;10.50;2.47;;;7.50;99.90;;;;;;4977998;28;20535;-49
2022/10/11 03:56:18;;;;;;;9.55;2.13;;;7.50;99.90;;;;;;4976382;28;20030;-53
2022/10/11 03:58:43;;;;;;;8.43;2.25;;;7.50;99.90;;;;;;4978009;28;20029;-52
2022/10/11 04:01:10;;;;;;;9.13;2.10;;;7.60;99.90;;;;;;4979856;28;20042;-52
2022/10/11 04:03:36;;;;;;;12.35;2.05;;;7.60;99.90;;;;;;4981060;28;20516;-54
2022/10/11 04:06:01;;;;;;;6.78;1.45;;;7.60;99.90;;;;;;4978165;28;20027;-53
2022/10/11 04:08:27;;;;;;;8.77;2.50;;;7.60;99.90;;;;;;4978136;28;20032;-51
2022/10/11 04:10:52;;;;;;;5.22;2.08;;;7.60;99.90;;;;;;4980539;28;20404;-51
2022/10/11 04:13:18;;;;;;;8.52;2.42;;;7.60;99.90;;;;;;4984590;28;20030;-52
2022/10/11 04:15:44;;;;;;;13.10;2.90;;;7.60;99.90;;;;;;4984986;28;20030;-50
2022/10/11 04:18:09;;;;;;;8.77;2.17;;;7.60;99.90;;;;;;4977475;28;20073;-53
2022/10/11 04:20:35;;;;;;;6.40;1.83;;;7.50;99.90;;;;;;4983216;28;20030;-49
2022/10/11 04:23:01;;;;;;;7.90;1.75;;;7.50;99.90;;;;;;4983597;28;20031;-49
2022/10/11 04:25:26;;;;;;;3.60;1.92;;;7.40;99.90;;;;;;4984895;28;20508;-53
2022/10/11 04:27:52;;;;;;;9.45;2.17;;;7.30;99.90;;;;;;4977798;28;20027;-51
2022/10/11 04:30:18;;;;;;;7.38;2.53;;;7.30;99.90;;;;;;4984645;28;20615;-49
2022/10/11 04:32:44;;;;;;;5.75;1.75;;;7.30;99.90;;;;;;4979220;28;20034;-50
2022/10/11 04:35:10;;;;;;;9.40;2.03;;;7.30;99.90;;;;;;4998248;28;20054;-49
2022/10/11 04:37:36;;;;;;;6.43;2.25;;;7.20;99.90;;;;;;4984561;28;20022;-50
2022/10/11 04:40:03;;;;;;;10.25;2.38;;;7.20;99.90;;;;;;4983153;28;20540;-50
2022/10/11 04:42:29;;;;;;;14.82;2.75;;;7.20;99.90;;;;;;4982322;28;20769;-53
2022/10/11 04:44:55;;;;;;;4.85;1.90;;;7.10;99.90;;;;;;4978734;28;20033;-52
2022/10/11 04:47:20;;;;;;;12.00;2.60;;;7.10;99.90;;;;;;4981932;28;20027;-50
2022/10/11 04:49:46;;;;;;;7.43;2.42;;;7.10;99.90;;;;;;4975044;28;20031;-49
2022/10/11 04:52:11;;;;;;;3.75;1.90;;;7.00;99.90;;;;;;4998146;28;20437;-50
2022/10/11 04:54:37;;;;;;;9.35;2.65;;;7.00;99.90;;;;;;4979247;28;20086;-49
2022/10/11 04:57:02;;;;;;;5.07;1.90;;;7.00;99.90;;;;;;4978003;28;20484;-49
2022/10/11 04:59:28;;;;;;;10.07;2.30;;;6.90;99.90;;;;;;4979791;28;20030;-50
2022/10/11 05:01:53;;;;;;;7.95;2.95;;;6.90;99.90;;;;;;4992422;28;20085;-50
2022/10/11 05:04:19;;;;;;;5.15;2.25;;;6.90;99.90;;;;;;4981242;28;20030;-50
2022/10/11 05:06:45;;;;;;;11.35;1.98;;;6.90;99.90;;;;;;4984409;28;20030;-49
2022/10/11 05:09:11;;;;;;;9.52;2.47;;;6.80;99.90;;;;;;4973829;28;20037;-49
2022/10/11 05:11:36;;;;;;;5.30;1.70;;;6.80;99.90;;;;;;4977057;28;20106;-50
2022/10/11 05:14:02;;;;;;;7.38;2.00;;;6.80;99.90;;;;;;4980869;28;20039;-52
2022/10/11 05:16:28;;;;;;;4.65;1.58;;;6.80;99.90;;;;;;4980943;28;20108;-49
2022/10/11 05:18:53;;;;;;;5.20;1.98;;;6.80;99.90;;;;;;4983314;28;20036;-49
2022/10/11 05:21:24;;;;;;;8.00;2.25;;;6.80;99.90;;;;;;4982934;28;20049;-49
2022/10/11 05:23:51;;;;;;;7.72;2.22;;;6.80;99.90;;;;;;4983344;28;20022;-49
2022/10/11 05:26:19;;;;;;;6.20;1.98;;;6.70;99.90;;;;;;4979947;28;20019;-50
2022/10/11 05:28:44;;;;;;;7.28;2.22;;;6.70;99.90;;;;;;4980634;28;20023;-54
2022/10/11 05:31:10;;;;;;;10.60;2.15;;;6.70;99.90;;;;;;4979239;28;20081;-59
2022/10/11 05:33:37;;;;;;;8.90;2.10;;;6.70;99.90;;;;;;4996780;28;20030;-50
2022/10/11 05:36:03;;;;;;;8.48;2.67;;;6.60;99.90;;;;;;4975872;28;20122;-52
2022/10/11 05:38:28;;;;;;;9.63;2.13;;;6.70;99.90;;;;;;4980417;28;20125;-54
2022/10/11 05:40:58;;;;;;;10.07;2.30;;;6.70;99.90;;;;;;4978526;28;20552;-49
2022/10/11 05:43:24;;;;;;;7.63;2.20;;;6.70;99.90;;;;;;4979900;28;20033;-49
2022/10/11 05:45:49;;;;;;;7.00;1.83;;;6.70;99.90;;;;;;4979599;28;20397;-49
2022/10/11 05:48:15;;;;;;;12.15;2.35;;;6.70;99.90;;;;;;4983250;28;20033;-50
2022/10/11 05:50:40;;;;;;;8.95;2.08;;;6.70;99.90;;;;;;4993268;28;20019;-49
2022/10/11 05:53:06;;;;;;;5.22;1.70;;;6.70;99.90;;;;;;4980432;28;20509;-50
2022/10/11 05:55:40;;;;;;;8.70;2.42;;;6.70;99.90;;;;;;4976959;28;20022;-49
2022/10/11 05:58:08;;;;;;;7.55;1.70;;;6.80;99.90;;;;;;4977882;28;20030;-51
2022/10/11 06:00:36;;;;;;;10.15;2.88;;;6.80;99.90;;;;;;4979782;28;20065;-50
2022/10/11 06:03:03;;;;;;;9.25;2.00;;;6.80;99.90;;;;;;4982010;28;20110;-50
2022/10/11 06:05:29;;;;;;;10.95;2.60;;;6.80;99.90;;;;;;4984449;28;20029;-52
2022/10/11 06:07:56;;;;;;;12.93;2.45;;;6.80;99.90;;;;;;4972266;28;20271;-51
2022/10/11 06:10:22;;;;;;;6.40;2.25;;;6.80;99.90;;;;;;4982674;28;20349;-51
2022/10/11 06:12:48;;;;;;;4.60;2.42;;;6.80;99.90;;;;;;4975440;28;20031;-49
2022/10/11 06:15:13;;;;;;;12.02;2.38;;;6.80;99.90;;;;;;4982406;28;20122;-51
2022/10/11 06:17:39;;;;;;;7.85;2.63;;;6.80;99.90;;;;;;4982118;28;20031;-51
2022/10/11 06:20:05;;;;;;;9.88;2.83;;;6.80;99.90;;;;;;4981622;28;20485;-49
2022/10/11 06:22:31;;;;;;;11.20;3.00;;;6.80;99.90;;;;;;4988845;28;20109;-52
2022/10/11 06:24:56;;;;;;;7.28;2.58;;;6.70;99.90;;;;;;4980412;28;20189;-51
2022/10/11 06:27:22;;;;;;;8.43;2.30;;;6.70;99.90;;;;;;4982397;28;20522;-49
2022/10/11 06:29:48;;;;;;;7.82;3.22;;;6.70;99.90;;;;;;4980412;28;20532;-51
2022/10/11 06:32:13;;;;;;;10.77;2.60;;;6.70;99.90;;;;;;4974732;28;20571;-51
2022/10/11 06:34:39;;;;;;;5.88;2.70;;;6.70;99.90;;;;;;4980848;28;20054;-49
2022/10/11 06:37:04;;;;;;;7.15;2.63;;;6.80;99.90;;;;;;4978933;28;20038;-54
2022/10/11 06:39:30;;;;;;;9.85;2.50;;;6.80;99.90;;;;;;4983761;28;20053;-49
2022/10/11 06:41:55;;;;;;;7.07;2.67;;;6.70;99.90;;;;;;4979170;28;20039;-50
2022/10/11 06:44:21;;;;;;;8.25;2.30;;;6.80;99.90;;;;;;4981661;28;20097;-52
2022/10/11 06:46:46;;;;;;;7.60;2.65;;;6.80;99.90;;;;;;4976298;28;20431;-50
2022/10/11 06:49:12;;;;;;;6.22;1.95;;;6.80;99.90;;;;;;4977900;28;20169;-51
2022/10/11 06:51:37;;;;;;;6.80;2.80;;;6.80;99.90;;;;;;4972064;28;20109;-49
2022/10/11 06:54:04;;;;;;;5.95;2.92;;;6.80;99.90;;;;;;4974254;28;20081;-51
2022/10/11 06:56:30;;;;;;;4.97;2.70;;;6.90;99.90;;;;;;4976807;28;20031;-49
2022/10/11 06:58:58;;;;;;;8.95;2.60;;;6.90;99.90;;;;;;4980784;28;20493;-51
2022/10/11 07:01:24;;;;;;;8.55;2.97;;;6.90;99.90;;;;;;4980762;28;20080;-52
2022/10/11 07:03:51;;;;;;;5.93;2.40;;;6.90;99.90;;;;;;4979913;28;20022;-53
2022/10/11 07:06:20;;;;;;;11.93;2.75;;;7.00;99.90;;;;;;4981947;28;20014;-49
2022/10/11 07:08:46;;;;;;;9.88;2.92;;;7.00;99.90;;;;;;4982527;28;20053;-49
2022/10/11 07:11:14;;;;;;;10.82;2.83;;;7.10;99.90;;;;;;5005433;23;20049;-59
2022/10/11 07:13:41;;;;;;;8.45;2.75;;;7.10;99.90;;;;;;5001188;28;20026;-54
2022/10/11 07:16:11;;;;;;;12.90;2.75;;;7.10;99.90;;;;;;4999496;28;20084;-55
2022/10/11 07:18:38;;;;;;;7.45;2.60;;;7.20;99.90;;;;;;5001916;28;20010;-55
2022/10/11 07:21:10;;;;;;;12.05;2.83;;;7.30;99.90;;;;;;5000883;28;20434;-57
2022/10/11 07:23:36;;;;;;;10.95;3.15;;;7.30;99.90;;;;;;5001379;28;20021;-55
2022/10/11 07:26:02;;;;;;;10.00;2.30;;;7.40;99.90;;;;;;4999556;28;20535;-56
2022/10/11 07:28:29;;;;;;;9.05;3.22;;;7.40;99.90;;;;;;5001805;28;20018;-55
2022/10/11 07:30:56;;;;;;;14.02;3.15;;;7.40;99.90;;;;;;5000504;28;20100;-54
2022/10/11 07:33:21;;;;;;;14.55;2.35;;;7.50;99.90;;;;;;5001262;28;20037;-54
2022/10/11 07:35:48;;;;;;;6.32;2.33;;;7.50;99.90;;;;;;5001216;28;20457;-54
2022/10/11 07:38:13;;;;;;;10.85;2.38;;;7.60;99.90;;;;;;5001082;28;20014;-51
2022/10/11 07:40:44;;;;;;;7.53;2.28;;;7.60;99.90;;;;;;4994591;28;20396;-51
2022/10/11 07:43:12;;;;;;;14.70;3.03;;;7.70;99.90;;;;;;5000307;28;20023;-54
2022/10/11 07:45:44;;;;;;;8.13;1.88;;;7.80;99.90;;;;;;5001933;28;20063;-53
2022/10/11 07:48:10;;;;;;;8.93;2.08;;;7.80;99.90;;;;;;4998418;28;20029;-52
2022/10/11 07:50:36;;;;;;;10.27;2.60;;;7.90;99.90;;;;;;4996320;28;20088;-56
2022/10/11 07:53:02;;;;;;;7.43;2.65;;;8.00;99.90;;;;;;4999060;28;20409;-53
2022/10/11 07:55:29;;;;;;;12.27;2.40;;;8.00;99.90;;;;;;4999952;28;20074;-53
2022/10/11 07:57:56;;;;;;;10.23;2.67;;;8.10;99.90;;;;;;4991999;28;20077;-55
2022/10/11 08:00:22;;;;;;;8.35;2.53;;;8.20;99.90;;;;;;5003530;28;20037;-59
2022/10/11 08:02:48;;;;;;;9.80;2.67;;;8.30;99.90;;;;;;4997711;28;20030;-56
2022/10/11 08:05:13;;;;;;;10.30;2.20;;;8.30;99.90;;;;;;5006884;28;20535;-55
2022/10/11 08:07:39;;;;;;;21.23;2.88;;;8.40;99.90;;;;;;4999138;28;20102;-54
2022/10/11 08:10:06;;;;;;;8.80;2.35;;;8.50;99.90;;;;;;4997156;28;20713;-52
2022/10/11 08:12:32;;;;;;;10.63;2.58;;;8.70;99.90;;;;;;5001006;28;20167;-53
2022/10/11 08:14:58;;;;;;;10.38;2.78;;;8.70;99.90;;;;;;5000355;28;20421;-55
2022/10/11 08:17:23;;;;;;;6.57;1.90;;;8.80;99.90;;;;;;5003275;28;20023;-55
2022/10/11 08:19:49;;;;;;;6.15;1.70;;;8.90;99.90;;;;;;4997149;28;20388;-53
2022/10/11 08:22:15;;;;;;;16.10;2.70;;;9.00;99.90;;;;;;5003177;28;20472;-51
2022/10/11 08:24:41;;;;;;;11.38;3.40;;;9.10;99.90;;;;;;4995105;28;20113;-52
2022/10/11 08:27:07;;;;;;;8.20;2.00;;;9.20;99.90;;;;;;5000240;28;20395;-55
2022/10/11 08:29:32;;;;;;;6.90;2.22;;;9.30;99.90;;;;;;4997221;28;20404;-55
2022/10/11 08:31:58;;;;;;;8.18;2.65;;;9.40;99.90;;;;;;4998440;28;20089;-56
2022/10/11 08:34:23;;;;;;;5.50;1.95;;;9.50;99.90;;;;;;4997235;28;20040;-55
2022/10/11 08:36:49;;;;;;;6.70;2.53;;;9.60;99.90;;;;;;4996770;28;20034;-58
2022/10/11 08:39:14;;;;;;;10.05;2.00;;;9.60;99.90;;;;;;5005367;28;20022;-56
2022/10/11 08:42:01;;;;;;;9.30;2.47;;;9.70;99.90;;;;;;4997121;28;20033;-57
2022/10/11 08:44:34;;;;;;;;;;;9.70;99.90;;;;;;4989145;28;20029;-53
2022/10/11 08:47:05;;;;;;;9.18;1.98;;;9.80;99.90;;;;;;4998593;28;20280;-51
2022/10/11 08:49:32;;;;;;;9.23;2.28;;;9.90;99.90;;;;;;4995864;28;20101;-54
2022/10/11 08:52:03;;;;;;;6.68;2.17;;;10.00;99.90;;;;;;4999567;28;20507;-52
2022/10/11 08:54:53;;;;;;;9.32;2.15;;;10.10;99.90;;;;;;4994651;28;20456;-54
2022/10/11 08:57:20;;;;;;;13.82;2.20;;;10.20;99.90;;;;;;4989965;28;20477;-53
2022/10/11 08:59:56;;;;;;;12.93;3.28;;;10.20;99.90;;;;;;4993372;28;20081;-51
2022/10/11 09:02:41;;;;;;;4.13;1.70;;;10.30;99.90;;;;;;4994095;28;20049;-51
2022/10/11 09:05:15;;;;;;;8.90;1.83;;;10.40;99.90;;;;;;5007991;28;20501;-54
2022/10/11 09:07:51;;;;;;;7.75;1.88;;;10.40;99.90;;;;;;4996363;28;20208;-55
2022/10/11 09:10:17;;;;;;;;;;;10.50;99.90;;;;;;4992035;28;20029;-55
2022/10/11 09:12:58;;;;;;;13.30;2.07;;;10.50;99.90;;;;;;5000051;28;19917;-54
2022/10/11 09:15:39;;;;;;;8.90;2.15;;;10.60;99.90;;;;;;4992471;28;20053;-51
2022/10/11 09:18:35;;;;;;;9.88;2.20;;;10.70;99.90;;;;;;5004019;28;20816;-50
2022/10/11 09:21:22;;;;;;;9.40;1.85;;;10.70;99.90;;;;;;4994915;28;20034;-52
2022/10/11 09:23:59;;;;;;;6.05;1.80;;;10.80;99.90;;;;;;5003343;28;20037;-54
2022/10/11 09:26:42;;;;;;;6.43;1.88;;;10.80;99.90;;;;;;4992749;28;20409;-50
2022/10/11 09:29:26;;;;;;;9.02;2.83;;;10.90;99.90;;;;;;4996328;28;20476;-56
2022/10/11 09:31:54;;;;;;;8.23;1.98;;;11.00;99.90;;;;;;4992151;28;20401;-52
2022/10/11 09:34:24;;;;;;;6.65;2.05;;;11.00;99.90;;;;;;4994031;28;20030;-54
2022/10/11 09:36:56;;;;;;;9.10;2.30;;;11.10;99.90;;;;;;4993701;28;20038;-53
2022/10/11 09:39:38;;;;;;;5.57;1.45;;;11.10;99.90;;;;;;5005552;28;20026;-54
2022/10/11 09:42:09;;;;;;;7.47;1.65;;;11.20;99.90;;;;;;4998890;28;20555;-51
2022/10/11 09:44:44;;;;;;;10.52;2.10;;;11.40;99.90;;;;;;4997200;28;20026;-53
2022/10/11 09:47:15;;;;;;;9.95;2.00;;;11.50;99.90;;;;;;4998224;28;20029;-51
2022/10/11 09:49:47;;;;;;;5.75;1.90;;;11.60;99.90;;;;;;5001520;28;20050;-57
2022/10/11 09:52:18;;;;;;;8.40;1.83;;;11.70;99.90;;;;;;4999317;28;20549;-53
2022/10/11 09:54:56;;;;;;;10.52;2.17;;;11.80;99.90;;;;;;5004267;28;20057;-52
2022/10/11 09:57:23;;;;;;;8.15;1.65;;;11.90;99.90;;;;;;4998299;28;20022;-50
2022/10/11 10:00:21;;;;;;;9.15;1.88;;;12.00;99.90;;;;;;5006140;28;20021;-55
2022/10/11 10:02:49;;;;;;;5.22;1.40;;;12.00;99.90;;;;;;4994869;28;20030;-53
2022/10/11 10:05:17;;;;;;;11.23;2.38;;;12.00;99.90;;;;;;4995516;28;20014;-55
2022/10/11 10:08:09;;;;;;;6.05;1.48;;;12.00;99.90;;;;;;5000124;28;20031;-53
2022/10/11 10:10:57;;;;;;;5.93;1.52;;;12.00;99.90;;;;;;4992029;28;20408;-56
2022/10/11 10:13:36;;;;;;;8.23;1.50;;;12.00;99.90;;;;;;4992108;28;20132;-53
2022/10/11 10:16:04;;;;;;;15.65;3.03;;;12.00;99.90;;;;;;4999163;28;20499;-51
2022/10/11 10:18:42;;;;;;;13.15;2.45;;;11.90;99.90;;;;;;4997823;28;20054;-52
2022/10/11 10:21:13;;;;;;;7.80;1.50;;;11.90;99.90;;;;;;4998872;28;20080;-51
2022/10/11 10:23:39;;;;;;;12.07;2.90;;;12.00;99.90;;;;;;5001755;28;20057;-55
2022/10/11 10:26:20;;;;;;;6.82;2.25;;;12.00;99.90;;;;;;5002103;28;20053;-55
2022/10/11 10:29:17;;;;;;;9.52;2.00;;;12.10;99.90;;;;;;5003131;28;20018;-56
2022/10/11 10:31:52;;;;;;;11.40;2.10;;;12.20;99.90;;;;;;4994221;28;20030;-53
2022/10/11 10:34:26;;;;;;;7.45;1.90;;;12.20;99.90;;;;;;4999472;28;20100;-54
2022/10/11 10:36:55;;;;;;;5.32;2.08;;;12.30;99.90;;;;;;4996319;28;20045;-56
2022/10/11 10:39:35;;;;;;;8.90;1.65;;;12.30;99.90;;;;;;5005049;28;20512;-52
2022/10/11 10:42:03;;;;;;;5.60;2.33;;;12.40;99.90;;;;;;4998176;28;20034;-51
2022/10/11 10:44:29;;;;;;;6.00;1.35;;;12.50;99.90;;;;;;5001571;28;20109;-52
2022/10/11 10:47:14;;;;;;;13.50;2.15;;;12.50;99.90;;;;;;5000223;28;20109;-52
2022/10/11 10:49:51;;;;;;;5.90;1.73;;;12.60;99.90;;;;;;5002263;28;20026;-51
2022/10/11 10:52:19;;;;;;;5.75;1.92;;;12.60;99.90;;;;;;4995864;28;20081;-53
2022/10/11 10:55:00;;;;;;;5.05;1.48;;;12.70;99.90;;;;;;5003626;28;20029;-55
2022/10/11 10:57:36;;;;;;;6.07;1.35;;;12.70;99.90;;;;;;4996150;28;20373;-56
2022/10/11 11:00:19;;;;;;;7.85;2.33;;;12.60;99.90;;;;;;4992192;28;20485;-52
2022/10/11 11:02:56;;;;;;;7.20;1.63;;;12.60;99.90;;;;;;4997271;28;20090;-55
2022/10/11 11:05:59;;;;;;;6.97;1.85;;;12.60;99.90;;;;;;4992068;28;20033;-54
2022/10/11 11:08:36;;;;;;;10.98;2.35;;;12.60;99.90;;;;;;4998968;28;20370;-54
2022/10/11 11:11:37;;;;;;;5.93;1.83;;;12.60;99.90;;;;;;4995414;28;20027;-53
2022/10/11 11:14:22;;;;;;;6.53;1.70;;;12.60;99.90;;;;;;5000270;28;20045;-54
2022/10/11 11:17:02;;;;;;;9.20;1.75;;;12.70;99.90;;;;;;5001448;28;20230;-53
2022/10/11 11:19:42;;;;;;;7.35;2.10;;;12.70;99.90;;;;;;4995354;28;20029;-53
2022/10/11 11:22:32;;;;;;;7.50;1.80;;;12.70;99.90;;;;;;5001147;28;20038;-51
2022/10/11 11:25:23;;;;;;;6.20;2.10;;;12.70;99.90;;;;;;4992091;28;20543;-52
2022/10/11 11:28:28;;;;;;;8.82;1.83;;;12.80;99.90;;;;;;4999269;28;20026;-55
2022/10/11 11:30:59;;;;;;;9.02;1.98;;;13.00;99.90;;;;;;4947335;28;20042;-55
2022/10/11 11:33:31;;;;;;;8.57;2.08;;;13.00;99.90;;;;;;4995347;28;20549;-54
2022/10/11 11:36:02;;;;;;;6.82;1.15;;;13.10;99.90;;;;;;5000578;28;20030;-53
2022/10/11 11:38:39;;;;;;;6.95;1.90;;;13.10;99.90;;;;;;4997494;28;20049;-56
2022/10/11 11:41:15;;;;;;;6.65;1.70;;;13.10;99.90;;;;;;4996990;28;20027;-53
2022/10/11 11:44:16;;;;;;;8.68;2.42;;;13.10;99.90;;;;;;4987642;28;20030;-51
2022/10/11 11:47:10;;;;;;;10.27;2.17;;;13.10;99.90;;;;;;4999061;28;20433;-53
2022/10/11 11:49:40;;;;;;;11.35;2.67;;;13.20;99.90;;;;;;4991640;28;20026;-53
2022/10/11 11:52:15;;;;;;;6.72;1.83;;;13.20;99.90;;;;;;4999390;28;20117;-56
2022/10/11 11:55:15;;;;;;;12.27;2.00;;;13.30;99.90;;;;;;5002586;28;20030;-56
2022/10/11 11:58:07;;;;;;;9.05;2.00;;;13.30;99.90;;;;;;4993544;28;20070;-55
2022/10/11 12:01:16;;;;;;;6.68;2.33;;;13.40;99.90;;;;;;4993594;28;20030;-56
2022/10/11 12:03:52;;;;;;;10.50;2.13;;;13.40;99.90;;;;;;4942511;28;20035;-53
2022/10/11 12:06:23;;;;;;;6.72;1.52;;;13.50;99.90;;;;;;4991763;28;20092;-52
2022/10/11 12:09:29;;;;;;;9.32;2.40;;;13.50;99.90;;;;;;5001426;28;20088;-53
2022/10/11 12:11:57;;;;;;;5.97;2.13;;;13.50;99.90;;;;;;5000334;28;20173;-52
2022/10/11 12:14:31;;;;;;;10.70;1.52;;;13.60;99.90;;;;;;4997731;28;20021;-53
2022/10/11 12:17:19;;;;;;;6.68;2.28;;;13.50;99.90;;;;;;5005034;28;20384;-55
2022/10/11 12:20:21;;;;;;;6.15;2.10;;;13.50;99.90;;;;;;4997578;28;20014;-54
2022/10/11 12:22:52;;;;;;;11.68;2.30;;;13.50;99.90;;;;;;4994249;28;20022;-53
2022/10/11 12:25:20;;;;;;;3.92;1.63;;;13.50;99.90;;;;;;4988978;28;20022;-54
2022/10/11 12:27:50;;;;;;;10.23;2.03;;;13.50;99.90;;;;;;4999569;28;20033;-54
2022/10/11 12:30:47;;;;;;;8.23;1.75;;;13.50;99.90;;;;;;4989224;28;20022;-51
2022/10/11 12:33:29;;;;;;;7.10;2.42;;;13.60;99.90;;;;;;5003327;28;20026;-54
2022/10/11 12:35:55;;;;;;;13.85;2.70;;;13.60;99.90;;;;;;5003517;28;20069;-52
2022/10/11 12:38:38;;;;;;;7.60;2.10;;;13.70;99.90;;;;;;5005402;28;20408;-52
2022/10/11 12:41:13;;;;;;;6.85;2.15;;;13.70;99.90;;;;;;5002572;28;20487;-52
2022/10/11 12:43:47;;;;;;;9.02;2.33;;;13.80;99.90;;;;;;4996671;28;20019;-52
2022/10/11 12:46:28;;;;;;;6.35;1.67;;;13.80;99.90;;;;;;5001214;28;20138;-53
2022/10/11 12:49:06;;;;;;;8.07;2.35;;;13.80;99.90;;;;;;4998544;28;20029;-52
2022/10/11 12:51:40;;;;;;;8.38;1.95;;;13.90;99.90;;;;;;5004450;28;20018;-52
2022/10/11 12:54:22;;;;;;;4.95;2.28;;;13.80;99.90;;;;;;5017104;28;20125;-56
2022/10/11 12:57:15;;;;;;;3.33;1.17;;;13.80;99.90;;;;;;5004390;28;20058;-56
2022/10/11 12:59:44;;;;;;;6.68;1.58;;;13.80;99.90;;;;;;4996750;28;20152;-52
2022/10/11 13:02:34;;;;;;;4.50;1.20;;;13.70;99.90;;;;;;5002572;28;20414;-53
2022/10/11 13:05:14;;;;;;;4.45;1.60;;;13.70;99.90;;;;;;5008706;28;20026;-53
2022/10/11 13:07:40;;;;;;;7.18;2.05;;;13.60;99.90;;;;;;5000684;28;20032;-53
2022/10/11 13:10:06;;;;;;;8.18;1.63;;;13.60;99.90;;;;;;5003020;28;20030;-53
2022/10/11 13:12:42;;;;;;;7.40;1.42;;;13.60;99.90;;;;;;5027998;23;20096;-55
2022/10/11 13:15:12;;;;;;;;;;;13.60;99.90;;;;;;4977945;28;20123;-49
2022/10/11 13:17:38;;;;;;;8.18;2.92;;;13.60;99.90;;;;;;4975877;28;19914;-48